Time;durP1;ratioP1;P1;durP2;ratioP2;P2;SDS_P1;SDS_P2;PMS_P1;PMS_P2;Temp;Humidity;BMP_temperature;BMP_pressure;BME280_temperature;BME280_humidity;BME280_pressure;Samples;Min_cycle;Max_cycle;Signal;HPM_P1;HPM_P2
2024/04/20 00:03:14;;;;;;;0.88;0.70;;;;;;;5.71;100.00;150104.53;11139663;26;20040;-70
2024/04/20 00:08:16;;;;;;;1.33;1.13;;;;;;;5.70;100.00;150101.97;11140083;26;20012;-72
2024/04/20 00:13:18;;;;;;;1.35;0.80;;;;;;;5.79;100.00;150125.13;11139586;26;20019;-71
2024/04/20 00:18:20;;;;;;;2.20;1.08;;;;;;;5.82;100.00;150132.84;11139625;26;20431;-71
2024/04/20 00:23:22;;;;;;;1.05;1.00;;;;;;;5.81;100.00;150131.56;11139602;26;20077;-70
2024/04/20 00:28:24;;;;;;;1.00;0.90;;;;;;;5.77;100.00;150121.28;11138801;26;20001;-72
2024/04/20 00:33:27;;;;;;;0.80;0.80;;;;;;;5.75;100.00;150114.81;11139914;26;20001;-71
2024/04/20 00:38:29;;;;;;;2.00;1.08;;;;;;;5.72;100.00;150107.13;11137255;26;20008;-71
2024/04/20 00:43:31;;;;;;;1.27;1.08;;;;;;;5.71;100.00;150105.84;11138965;26;20039;-71
2024/04/20 00:48:33;;;;;;;4.30;0.80;;;;;;;5.80;100.00;150127.72;11139383;26;20006;-71
2024/04/20 00:53:36;;;;;;;1.35;0.63;;;;;;;5.79;100.00;150125.13;11138415;26;20014;-72
2024/04/20 00:58:38;;;;;;;0.52;0.50;;;;;;;5.81;100.00;150130.28;11138661;26;20004;-71
2024/04/20 01:03:40;;;;;;;1.48;0.68;;;;;;;5.77;100.00;150120.00;11137988;26;20474;-71
2024/04/20 01:08:42;;;;;;;1.13;0.50;;;;;;;5.76;100.00;150117.44;11139224;26;20337;-72
2024/04/20 01:13:55;;;;;;;0.65;0.60;;;;;;;5.78;100.00;150123.84;11138985;26;20020;-71
2024/04/20 01:18:57;;;;;;;0.60;0.52;;;;;;;5.79;100.00;150126.41;11138690;26;20010;-72
2024/04/20 01:24:04;;;;;;;0.73;0.60;;;;;;;5.73;100.00;150109.69;11139346;26;20015;-73
2024/04/20 01:29:06;;;;;;;2.00;0.80;;;;;;;5.70;100.00;150101.97;11140072;26;20012;-72
2024/04/20 01:34:07;;;;;;;0.82;0.82;;;;;;;5.72;100.00;150107.13;11139346;26;20048;-72
2024/04/20 01:39:09;;;;;;;1.05;0.90;;;;;;;5.69;100.00;150099.41;11138351;26;20000;-71
2024/04/20 01:44:11;;;;;;;0.70;0.70;;;;;;;5.67;100.00;150094.28;11137313;26;20414;-71
2024/04/20 01:49:13;;;;;;;1.42;0.90;;;;;;;5.62;100.00;150082.66;11137322;26;20019;-71
2024/04/20 01:54:15;;;;;;;1.42;0.93;;;;;;;5.56;100.00;150067.25;11137183;26;20004;-72
2024/04/20 01:59:17;;;;;;;1.20;1.10;;;;;;;5.65;100.00;150090.41;11138078;26;20394;-72
2024/04/20 02:04:19;;;;;;;1.10;0.88;;;;;;;5.59;100.00;150074.97;11137567;26;20464;-72
2024/04/20 02:09:21;;;;;;;1.00;0.90;;;;;;;5.60;100.00;150077.53;11137798;26;20187;-72
2024/04/20 02:14:23;;;;;;;1.15;1.05;;;;;;;5.70;100.00;150101.97;11137558;26;20031;-73
2024/04/20 02:19:25;;;;;;;1.38;1.10;;;;;;;5.69;100.00;150099.41;11137140;26;20032;-73
2024/04/20 02:24:27;;;;;;;1.67;1.02;;;;;;;5.76;100.00;150118.72;11136658;26;20023;-71
2024/04/20 02:29:29;;;;;;;1.27;1.17;;;;;;;5.78;100.00;150123.84;11137270;26;20000;-71
2024/04/20 02:34:30;;;;;;;1.30;1.20;;;;;;;5.68;100.00;150098.13;11136741;26;20008;-71
2024/04/20 02:39:32;;;;;;;1.58;1.48;;;;;;;5.73;100.00;150109.69;11142913;26;19997;-70
2024/04/20 02:44:34;;;;;;;1.05;0.95;;;;;;;5.69;100.00;150100.69;11143887;26;20016;-71
2024/04/20 02:49:36;;;;;;;1.83;1.52;;;;;;;5.56;100.00;150068.53;11143713;26;20018;-71
2024/04/20 02:54:38;;;;;;;2.47;1.63;;;;;;;5.65;100.00;150089.13;11142569;26;20018;-72
2024/04/20 02:59:40;;;;;;;1.30;1.20;;;;;;;5.51;100.00;150055.66;11142324;26;20008;-72
2024/04/20 03:04:42;;;;;;;1.75;1.65;;;;;;;5.73;100.00;150110.97;11140811;26;20011;-71
2024/04/20 03:09:44;;;;;;;1.73;1.63;;;;;;;5.77;100.00;150120.00;11143045;26;20525;-71
2024/04/20 03:14:46;;;;;;;1.83;1.73;;;;;;;5.79;100.00;150125.13;11140799;26;20001;-72
2024/04/20 03:19:48;;;;;;;1.90;1.70;;;;;;;5.79;100.00;150125.13;11142165;26;20051;-72
2024/04/20 03:24:50;;;;;;;1.73;1.63;;;;;;;5.67;100.00;150094.28;11141670;26;20076;-71
2024/04/20 03:29:52;;;;;;;1.80;1.70;;;;;;;5.81;100.00;150131.56;11140419;26;20007;-71
2024/04/20 03:34:54;;;;;;;2.05;1.80;;;;;;;5.66;100.00;150091.66;11142004;26;20004;-71
2024/04/20 03:39:56;;;;;;;1.63;1.52;;;;;;;5.54;100.00;150062.13;11142054;26;20074;-71
2024/04/20 03:44:58;;;;;;;1.83;1.70;;;;;;;5.57;100.00;150071.09;11141651;26;20023;-71
2024/04/20 03:50:00;;;;;;;1.73;1.55;;;;;;;5.45;100.00;150038.97;11140795;26;20007;-71
2024/04/20 03:55:01;;;;;;;2.22;1.63;;;;;;;5.53;100.00;150059.50;11140917;26;20036;-72
2024/04/20 04:00:07;;;;;;;2.00;1.80;;;;;;;5.56;100.00;150068.53;11138612;26;20015;-72
2024/04/20 04:05:09;;;;;;;1.77;1.67;;;;;;;5.32;100.00;150006.81;11141690;26;20365;-71
2024/04/20 04:10:10;;;;;;;1.80;1.50;;;;;;;5.42;100.00;150031.25;11141660;26;20011;-71
2024/04/20 04:15:12;;;;;;;2.00;1.65;;;;;;;5.43;100.00;150035.09;11141013;26;20008;-70
2024/04/20 04:20:14;;;;;;;3.50;2.55;;;;;;;5.34;100.00;150010.66;11140228;26;20073;-72
2024/04/20 04:25:16;;;;;;;2.92;2.45;;;;;;;5.55;100.00;150065.97;11140016;26;20019;-71
2024/04/20 04:30:18;;;;;;;6.22;2.97;;;;;;;5.56;100.00;150067.25;11140068;26;20007;-71
2024/04/20 04:35:20;;;;;;;4.13;2.90;;;;;;;5.72;100.00;150107.13;11139832;26;20004;-71
2024/04/20 04:40:23;;;;;;;4.95;3.45;;;;;;;5.80;100.00;150127.72;11140306;26;20004;-70
2024/04/20 04:45:26;;;;;;;3.13;2.83;;;;;;;5.54;100.00;150062.13;11139099;26;20423;-70
2024/04/20 04:50:29;;;;;;;3.38;2.50;;;;;;;5.50;100.00;150053.13;11139521;26;20007;-70
2024/04/20 04:55:31;;;;;;;2.60;2.40;;;;;;;5.46;100.00;150041.53;11139240;26;20011;-71
2024/04/20 05:00:33;;;;;;;2.45;1.55;;;;;;;5.16;100.00;149966.94;11138065;26;20368;-70
2024/04/20 05:05:35;;;;;;;2.17;1.98;;;;;;;5.28;100.00;149996.53;11138772;26;20004;-70
2024/04/20 05:10:37;;;;;;;2.03;1.80;;;;;;;5.26;100.00;149991.38;11137483;26;20014;-70
2024/04/20 05:15:40;;;;;;;2.22;1.67;;;;;;;5.24;100.00;149986.25;11137376;26;20000;-70
2024/04/20 05:20:42;;;;;;;1.88;1.60;;;;;;;5.25;100.00;149988.81;11139065;26;20023;-70
2024/04/20 05:25:44;;;;;;;2.72;1.60;;;;;;;5.14;100.00;149961.81;11138420;26;20411;-70
2024/04/20 05:30:45;;;;;;;2.13;1.38;;;;;;;5.18;100.00;149970.78;11136585;26;19996;-70
2024/04/20 05:35:47;;;;;;;1.58;1.35;;;;;;;5.27;100.00;149993.97;11138381;26;20013;-70
2024/04/20 05:40:49;;;;;;;1.50;0.60;;;;;;;5.20;100.00;149977.22;11137762;26;19996;-69
2024/04/20 05:45:51;;;;;;;0.93;0.70;;;;;;;4.97;100.00;149918.13;11138060;26;20012;-69
2024/04/20 05:50:53;;;;;;;0.20;0.20;;;;;;;4.81;100.00;149878.25;11137728;26;20541;-70
2024/04/20 05:55:55;;;;;;;0.57;0.47;;;;;;;4.76;100.00;149866.66;11136241;26;20015;-71
2024/04/20 06:00:56;;;;;;;0.20;0.20;;;;;;;4.81;100.00;149878.25;11138365;26;20008;-71
2024/04/20 06:05:59;;;;;;;0.20;0.20;;;;;;;4.58;100.00;149820.41;11137365;26;20485;-71
2024/04/20 06:11:00;;;;;;;0.30;0.30;;;;;;;4.49;100.00;149797.28;11136769;26;20011;-71
2024/04/20 06:16:03;;;;;;;0.22;0.22;;;;;;;4.43;100.00;149783.16;11136944;26;20011;-71
2024/04/20 06:21:05;;;;;;;0.35;0.35;;;;;;;4.47;100.00;149792.13;11136956;26;20020;-70
2024/04/20 06:26:07;;;;;;;0.15;0.15;;;;;;;4.34;100.00;149760.03;11135260;26;20005;-70
2024/04/20 06:31:08;;;;;;;0.60;0.20;;;;;;;4.54;100.00;149810.13;11137619;26;20000;-74
2024/04/20 06:36:10;;;;;;;0.30;0.30;;;;;;;4.63;100.00;149831.97;11136953;26;20020;-74
2024/04/20 06:41:12;;;;;;;0.38;0.28;;;;;;;4.59;100.00;149821.69;11136737;26;20028;-73
2024/04/20 06:46:15;;;;;;;0.20;0.20;;;;;;;4.68;100.00;149846.09;11134634;26;20000;-73
2024/04/20 06:51:17;;;;;;;0.47;0.25;;;;;;;4.54;100.00;149810.13;11136487;26;20009;-73
2024/04/20 06:56:19;;;;;;;0.17;0.17;;;;;;;4.64;100.00;149835.81;11136860;26;20004;-73
2024/04/20 07:01:21;;;;;;;0.30;0.22;;;;;;;4.48;100.00;149794.72;11134332;26;20000;-74
2024/04/20 07:06:23;;;;;;;1.30;0.30;;;;;;;4.57;100.00;149817.84;11135739;26;20001;-73
2024/04/20 07:11:25;;;;;;;0.30;0.30;;;;;;;4.51;100.00;149802.41;11133424;26;20078;-75
2024/04/20 07:16:27;;;;;;;0.30;0.30;;;;;;;4.46;100.00;149790.84;11135190;26;20082;-74
2024/04/20 07:21:29;;;;;;;1.65;0.50;;;;;;;4.42;100.00;149779.28;11136497;26;20412;-72
2024/04/20 07:26:36;;;;;;;0.75;0.60;;;;;;;4.43;100.00;149783.16;11142541;26;20471;-74
2024/04/20 07:31:38;;;;;;;1.23;0.80;;;;;;;4.56;100.00;149815.28;11141965;26;20006;-72
2024/04/20 07:36:40;;;;;;;0.60;0.60;;;;;;;4.39;100.00;149772.88;11139251;26;20018;-72
2024/04/20 07:41:42;;;;;;;0.50;0.43;;;;;;;4.41;100.00;149778.00;11139352;26;20329;-73
2024/04/20 07:46:44;;;;;;;0.63;0.45;;;;;;;4.43;100.00;149781.88;11141236;26;20019;-73
2024/04/20 07:51:46;;;;;;;0.40;0.40;;;;;;;4.37;100.00;149767.72;11140974;26;20016;-73
2024/04/20 07:56:47;;;;;;;0.70;0.50;;;;;;;4.35;100.00;149761.31;11140731;26;20004;-73
2024/04/20 08:01:51;;;;;;;0.70;0.43;;;;;;;4.40;100.00;149774.16;11142331;26;20512;-72
2024/04/20 08:06:53;;;;;;;0.57;0.50;;;;;;;4.20;100.00;149725.31;11140871;26;20000;-73
2024/04/20 08:11:56;;;;;;;0.40;0.35;;;;;;;4.26;100.00;149739.47;11141028;26;20010;-73
2024/04/20 08:16:58;;;;;;;0.60;0.50;;;;;;;4.29;100.00;149747.16;11141290;26;20011;-72
2024/04/20 08:22:00;;;;;;;0.32;0.32;;;;;;;4.19;100.00;149722.75;11141836;26;20008;-73
2024/04/20 08:27:01;;;;;;;0.45;0.40;;;;;;;4.01;100.00;149677.78;11141889;26;20386;-72
2024/04/20 08:32:04;;;;;;;0.98;0.80;;;;;;;4.13;100.00;149706.06;11141207;26;20008;-73
2024/04/20 08:37:06;;;;;;;0.60;0.60;;;;;;;4.30;100.00;149749.75;11140745;26;20019;-72
2024/04/20 08:42:24;;;;;;;1.65;0.70;;;;;;;4.29;100.00;149748.47;11142245;26;20013;-73
2024/04/20 08:47:28;;;;;;;1.05;0.60;;;;;;;4.24;100.00;149735.59;11141058;26;20004;-73
2024/04/20 08:52:30;;;;;;;0.77;0.77;;;;;;;4.50;100.00;149799.84;11141129;26;20012;-73
2024/04/20 08:57:36;;;;;;;1.25;0.70;;;;;;;4.49;100.00;149797.28;11139259;26;20000;-73
2024/04/20 09:02:42;;;;;;;1.13;0.65;;;;;;;4.23;100.00;149733.03;11140960;26;20008;-73
2024/04/20 09:07:45;;;;;;;0.80;0.75;;;;;;;4.33;100.00;149757.44;11141000;26;20329;-74
2024/04/20 09:12:47;;;;;;;0.80;0.75;;;;;;;4.12;100.00;149704.78;11140819;26;20008;-73
2024/04/20 09:17:50;;;;;;;1.17;0.70;;;;;;;4.11;100.00;149702.19;11139227;26;20087;-73
2024/04/20 09:23:06;;;;;;;0.70;0.60;;;;;;;4.09;100.00;149697.06;11138836;26;20004;-73
2024/04/20 09:28:09;;;;;;;1.00;0.90;;;;;;;4.27;100.00;149742.03;11138083;26;20078;-72
2024/04/20 09:33:13;;;;;;;1.17;1.00;;;;;;;4.37;100.00;149767.72;11138794;26;20077;-73
2024/04/20 09:38:15;;;;;;;0.88;0.68;;;;;;;4.35;100.00;149762.59;11137901;26;20019;-73
2024/04/20 09:43:21;;;;;;;0.60;0.60;;;;;;;4.49;100.00;149797.28;11137764;26;20008;-73
2024/04/20 09:48:24;;;;;;;0.60;0.60;;;;;;;4.53;100.00;149807.56;11174125;26;20355;-72
2024/04/20 09:53:33;;;;;;;0.80;0.80;;;;;;;4.67;100.00;149843.53;11165529;26;20000;-72
2024/04/20 09:58:37;;;;;;;0.70;0.70;;;;;;;4.72;100.00;149855.09;11185737;26;20015;-72
2024/04/20 10:03:42;;;;;;;0.40;0.40;;;;;;;4.79;100.00;149874.41;11137801;26;20472;-72
2024/04/20 10:08:46;;;;;;;0.60;0.57;;;;;;;4.74;100.00;149861.56;11184692;26;19999;-73
2024/04/20 10:13:51;;;;;;;1.10;0.65;;;;;;;4.61;100.00;149826.84;11212271;26;20010;-73
2024/04/20 10:18:53;;;;;;;0.77;0.40;;;;;;;4.90;100.00;149901.38;11212411;26;20042;-73
2024/04/20 10:23:57;;;;;;;0.50;0.50;;;;;;;5.02;100.00;149932.25;11190261;26;20481;-73
2024/04/20 10:29:09;;;;;;;0.82;0.60;;;;;;;5.17;100.00;149968.22;11137091;26;20019;-73
2024/04/20 10:34:24;;;;;;;0.60;0.50;;;;;;;5.53;100.00;150060.84;11134807;26;19996;-73
2024/04/20 10:39:27;;;;;;;2.85;1.33;;;;;;;5.75;100.00;150116.09;11134487;26;20058;-73
2024/04/20 10:44:29;;;;;;;1.02;0.80;;;;;;;5.76;100.00;150117.44;11135906;26;20004;-74
2024/04/20 10:49:31;;;;;;;0.47;0.40;;;;;;;5.86;100.00;150141.88;11136307;26;20028;-74
2024/04/20 10:54:33;;;;;;;1.08;0.68;;;;;;;5.80;100.00;150127.72;11136482;26;20000;-74
2024/04/20 10:59:35;;;;;;;1.27;0.80;;;;;;;6.07;94.72;150197.25;11142153;26;20000;-75
2024/04/20 11:04:37;;;;;;;0.50;0.50;;;;;;;6.22;94.40;150233.25;11141282;26;20001;-73
2024/04/20 11:09:45;;;;;;;0.65;0.50;;;;;;;6.51;94.19;150306.63;11142985;26;20016;-72
2024/04/20 11:14:58;;;;;;;0.38;0.38;;;;;;;6.91;85.68;150407.03;11143442;26;20075;-73
2024/04/20 11:20:00;;;;;;;0.90;0.52;;;;;;;6.41;86.51;150280.84;11140709;26;20026;-73
2024/04/20 11:25:11;;;;;;;0.50;0.50;;;;;;;6.35;85.79;150265.44;11143169;26;20007;-73
2024/04/20 11:30:14;;;;;;;0.35;0.30;;;;;;;5.95;80.96;150165.06;11143969;26;20478;-75
2024/04/20 11:35:16;;;;;;;1.00;0.30;;;;;;;5.76;84.43;150117.44;11140930;26;20007;-74
2024/04/20 11:40:18;;;;;;;0.50;0.38;;;;;;;5.73;87.77;150109.69;11143376;26;20360;-74
2024/04/20 11:45:20;;;;;;;2.13;0.90;;;;;;;5.93;91.67;150159.91;11142222;26;20025;-74
2024/04/20 11:50:22;;;;;;;0.80;0.50;;;;;;;6.29;90.11;150252.56;11142175;26;20008;-74
2024/04/20 11:55:24;;;;;;;0.88;0.60;;;;;;;6.45;90.14;150291.16;11139183;26;20004;-73
2024/04/20 12:00:26;;;;;;;0.75;0.70;;;;;;;6.39;89.25;150277.00;11140246;26;20003;-75
2024/04/20 12:05:29;;;;;;;0.93;0.70;;;;;;;6.24;89.93;150239.72;11140553;26;20004;-75
2024/04/20 12:10:31;;;;;;;1.05;0.63;;;;;;;5.98;93.81;150172.78;11141106;26;20008;-74
2024/04/20 12:15:33;;;;;;;0.68;0.60;;;;;;;5.25;95.10;149990.09;11143322;26;20008;-73
2024/04/20 12:20:35;;;;;;;0.98;0.68;;;;;;;5.23;99.73;149984.97;11142709;26;20011;-74
2024/04/20 12:25:37;;;;;;;0.85;0.73;;;;;;;5.32;100.00;150008.09;11142306;26;20480;-74
2024/04/20 12:30:39;;;;;;;0.85;0.68;;;;;;;5.48;100.00;150047.94;11140689;26;20000;-74
2024/04/20 12:35:41;;;;;;;1.25;0.88;;;;;;;5.55;100.00;150065.97;11142648;26;20108;-73
2024/04/20 12:40:43;;;;;;;1.17;0.80;;;;;;;5.85;99.97;150139.31;11142722;26;20015;-74
2024/04/20 12:45:45;;;;;;;1.52;0.70;;;;;;;5.83;92.47;150135.41;11140281;26;20004;-73
2024/04/20 12:50:49;;;;;;;0.82;0.50;;;;;;;6.11;90.47;150206.25;11140995;26;19996;-74
2024/04/20 12:55:51;;;;;;;1.60;0.70;;;;;;;6.30;89.97;150255.13;11140934;26;20004;-74
2024/04/20 13:00:53;;;;;;;1.25;0.50;;;;;;;6.69;90.52;150351.69;11140102;26;20029;-73
2024/04/20 13:05:55;;;;;;;1.10;0.77;;;;;;;7.01;85.79;150434.06;11140141;26;20004;-75
2024/04/20 13:10:57;;;;;;;0.95;0.60;;;;;;;7.16;84.78;150471.38;11138928;26;20041;-74
2024/04/20 13:15:59;;;;;;;0.68;0.40;;;;;;;7.12;75.46;150461.06;11137454;26;20008;-74
2024/04/20 13:21:01;;;;;;;1.13;0.40;;;;;;;7.02;78.55;150436.63;11135128;26;20000;-73
2024/04/20 13:26:03;;;;;;;0.52;0.50;;;;;;;6.80;80.76;150379.97;11138281;26;20364;-74
2024/04/20 13:31:23;;;;;;;1.33;0.60;;;;;;;6.76;83.96;150370.94;11138666;26;20011;-74
2024/04/20 13:36:25;;;;;;;0.73;0.60;;;;;;;6.67;82.82;150346.50;11137519;26;20022;-74
2024/04/20 13:41:27;;;;;;;0.80;0.70;;;;;;;6.74;82.92;150364.53;11139555;26;20366;-74
2024/04/20 13:46:29;;;;;;;0.65;0.50;;;;;;;6.91;81.26;150408.31;11137857;26;20334;-74
2024/04/20 13:51:31;;;;;;;0.40;0.40;;;;;;;6.66;79.02;150345.22;11138118;26;20008;-74
2024/04/20 13:56:36;;;;;;;0.40;0.40;;;;;;;6.99;80.68;150428.88;11136685;26;20012;-75
2024/04/20 14:01:38;;;;;;;0.90;0.40;;;;;;;7.15;78.21;150468.81;11136704;26;20333;-75
2024/04/20 14:06:41;;;;;;;0.50;0.50;;;;;;;7.15;74.79;150467.53;11136414;26;20014;-75
2024/04/20 14:11:44;;;;;;;0.60;0.43;;;;;;;7.19;72.79;150477.84;11136668;26;20004;-75
2024/04/20 14:16:45;;;;;;;0.47;0.47;;;;;;;7.21;72.70;150482.97;11136781;26;20032;-75
2024/04/20 14:21:50;;;;;;;1.05;0.50;;;;;;;7.15;70.68;150468.81;11134548;26;20018;-75
2024/04/20 14:26:52;;;;;;;0.80;0.60;;;;;;;7.13;71.34;150462.34;11133601;26;20000;-75
2024/04/20 14:31:54;;;;;;;1.55;0.47;;;;;;;7.51;69.01;150560.25;11135968;26;20032;-75
2024/04/20 14:37:00;;;;;;;0.68;0.45;;;;;;;7.43;71.27;150539.63;11134728;26;20435;-75
2024/04/20 14:42:02;;;;;;;1.10;0.50;;;;;;;7.22;73.05;150486.88;11135054;26;20000;-74
2024/04/20 14:47:04;;;;;;;0.63;0.50;;;;;;;7.28;76.12;150501.03;11128946;26;20238;-75
2024/04/20 14:52:09;;;;;;;1.13;0.32;;;;;;;7.11;69.75;150457.22;11131993;26;20011;-74
2024/04/20 14:57:11;;;;;;;0.80;0.43;;;;;;;7.03;67.77;150437.91;11133635;26;20012;-75
2024/04/20 15:02:14;;;;;;;0.43;0.43;;;;;;;7.26;66.33;150495.84;11134853;26;20024;-74
2024/04/20 15:07:18;;;;;;;0.93;0.32;;;;;;;7.20;67.36;150481.69;11133750;26;20011;-74
2024/04/20 15:12:19;;;;;;;0.40;0.32;;;;;;;7.08;69.86;150450.78;11135339;26;20010;-75
2024/04/20 15:17:21;;;;;;;1.38;0.45;;;;;;;7.26;70.29;150497.19;11133946;26;20000;-75
2024/04/20 15:22:23;;;;;;;0.55;0.32;;;;;;;7.61;67.92;150584.72;11134162;26;20023;-74
2024/04/20 15:27:25;;;;;;;0.40;0.40;;;;;;;7.45;66.77;150543.53;11134413;26;20298;-74
2024/04/20 15:32:27;;;;;;;0.40;0.38;;;;;;;7.18;66.99;150476.56;11135698;26;20004;-74
2024/04/20 15:37:31;;;;;;;0.80;0.50;;;;;;;7.20;67.81;150481.69;11136764;26;20081;-74
2024/04/20 15:42:33;;;;;;;0.65;0.50;;;;;;;7.55;65.70;150570.56;11138476;26;20010;-74
2024/04/20 15:47:35;;;;;;;1.95;0.40;;;;;;;7.53;70.23;150564.16;11144749;26;20024;-74
2024/04/20 15:52:38;;;;;;;0.55;0.50;;;;;;;7.24;73.53;150492.00;11142880;26;20065;-74
2024/04/20 15:57:40;;;;;;;0.70;0.70;;;;;;;6.92;76.03;150409.59;11180618;26;19997;-74
2024/04/20 16:02:42;;;;;;;0.80;0.60;;;;;;;6.68;76.71;150349.06;11161983;26;20084;-74
2024/04/20 16:07:44;;;;;;;0.82;0.60;;;;;;;6.54;78.72;150315.59;11215745;26;20007;-74
2024/04/20 16:13:06;;;;;;;1.10;0.73;;;;;;;6.44;79.94;150288.59;11173082;26;20015;-74
2024/04/20 16:18:08;;;;;;;0.47;0.47;;;;;;;6.57;78.82;150322.06;11193115;26;20023;-75
2024/04/20 16:23:10;;;;;;;1.58;0.50;;;;;;;6.54;77.82;150315.59;11148851;26;20077;-74
2024/04/20 16:28:13;;;;;;;0.60;0.60;;;;;;;6.35;79.64;150265.44;11193328;26;20006;-74
2024/04/20 16:33:19;;;;;;;1.52;0.52;;;;;;;6.42;75.18;150283.41;11211428;26;19995;-74
2024/04/20 16:38:21;;;;;;;1.10;0.60;;;;;;;6.75;70.44;150367.09;11214845;26;20000;-76
2024/04/20 16:43:24;;;;;;;0.60;0.50;;;;;;;6.53;71.42;150311.75;11188477;26;20037;-75
2024/04/20 16:48:27;;;;;;;0.73;0.50;;;;;;;6.59;65.39;150327.19;11142862;26;20028;-75
2024/04/20 16:53:30;;;;;;;0.85;0.75;;;;;;;6.71;62.65;150358.09;11141371;26;20456;-75
2024/04/20 16:58:31;;;;;;;1.20;0.90;;;;;;;6.73;63.86;150361.94;11141675;26;20058;-75
2024/04/20 17:03:33;;;;;;;1.00;0.73;;;;;;;6.51;65.90;150307.91;11140211;26;20008;-75
2024/04/20 17:08:37;;;;;;;0.88;0.68;;;;;;;6.86;65.00;150394.13;11142517;26;20452;-75
2024/04/20 17:13:38;;;;;;;1.05;0.82;;;;;;;6.60;67.34;150328.47;11143234;26;20026;-75
2024/04/20 17:18:42;;;;;;;1.20;0.50;;;;;;;6.48;69.82;150300.19;11140667;26;20007;-75
2024/04/20 17:23:45;;;;;;;1.30;0.57;;;;;;;6.36;71.65;150268.00;11142135;26;20016;-75
2024/04/20 17:28:51;;;;;;;0.75;0.60;;;;;;;6.10;75.01;150203.63;11141366;26;20000;-75
2024/04/20 17:33:54;;;;;;;0.80;0.70;;;;;;;6.20;77.71;150229.41;11141357;26;20008;-73
2024/04/20 17:38:57;;;;;;;1.77;0.90;;;;;;;6.26;80.97;150244.84;11141237;26;20008;-75
2024/04/20 17:43:59;;;;;;;1.75;0.98;;;;;;;6.10;82.57;150202.34;11139124;26;19996;-74
2024/04/20 17:49:01;;;;;;;1.75;1.40;;;;;;;5.92;85.51;150158.63;11142327;26;20012;-75
2024/04/20 17:54:03;;;;;;;1.52;1.30;;;;;;;5.78;87.59;150122.56;11141815;26;20518;-75
2024/04/20 17:59:05;;;;;;;1.65;1.50;;;;;;;5.98;85.47;150174.09;11142027;26;20007;-75
2024/04/20 18:04:07;;;;;;;1.63;1.20;;;;;;;5.90;87.27;150153.44;11141675;26;20008;-74
2024/04/20 18:09:09;;;;;;;1.92;1.73;;;;;;;5.71;90.38;150104.53;11140873;26;20026;-75
2024/04/20 18:14:13;;;;;;;1.17;1.08;;;;;;;5.66;91.06;150092.94;11141695;26;20004;-76
2024/04/20 18:19:15;;;;;;;0.82;0.82;;;;;;;5.62;90.54;150081.38;11145439;26;20000;-75
2024/04/20 18:24:17;;;;;;;1.38;1.00;;;;;;;5.51;91.50;150055.66;11151628;26;20339;-75
2024/04/20 18:29:19;;;;;;;1.30;1.10;;;;;;;5.56;92.41;150068.53;11212140;26;20433;-75
2024/04/20 18:34:21;;;;;;;2.17;1.15;;;;;;;5.52;93.32;150058.22;11213055;26;20027;-75
2024/04/20 18:39:22;;;;;;;2.17;1.63;;;;;;;5.98;89.24;150174.09;11142477;26;20468;-76
2024/04/20 18:44:24;;;;;;;1.63;1.25;;;;;;;5.85;90.40;150139.31;11141824;26;20005;-75
2024/04/20 18:49:26;;;;;;;1.50;1.25;;;;;;;5.65;89.87;150089.13;11138949;26;20032;-75
2024/04/20 18:54:28;;;;;;;1.60;1.50;;;;;;;5.38;92.76;150022.22;11188345;26;20018;-76
2024/04/20 18:59:30;;;;;;;2.00;1.27;;;;;;;5.40;93.66;150026.06;11214155;26;19999;-75
2024/04/20 19:04:32;;;;;;;2.35;1.50;;;;;;;5.38;93.31;150022.22;11214556;26;20003;-75
2024/04/20 19:09:34;;;;;;;3.10;2.20;;;;;;;5.29;93.84;149999.09;11211891;26;20011;-75
2024/04/20 19:14:35;;;;;;;1.77;1.50;;;;;;;5.32;92.71;150008.09;11213416;26;20007;-76
2024/04/20 19:19:37;;;;;;;1.92;1.10;;;;;;;5.25;92.84;149988.81;11218149;26;20332;-76
2024/04/20 19:24:39;;;;;;;2.13;1.40;;;;;;;5.10;94.30;149951.53;11220256;26;20332;-76
2024/04/20 19:29:41;;;;;;;1.73;1.63;;;;;;;5.11;93.32;149952.81;11156534;26;20000;-76
2024/04/20 19:34:43;;;;;;;1.92;1.63;;;;;;;4.92;96.51;149905.25;11148230;26;20119;-76
2024/04/20 19:39:45;;;;;;;1.27;1.10;;;;;;;4.73;99.27;149858.94;11144790;26;19996;-76
2024/04/20 19:44:47;;;;;;;2.53;1.70;;;;;;;4.73;99.94;149857.66;11142451;26;20004;-76
2024/04/20 19:49:49;;;;;;;2.50;1.50;;;;;;;4.85;99.28;149887.25;11143565;26;20016;-76
2024/04/20 19:54:50;;;;;;;1.70;1.35;;;;;;;4.78;99.58;149870.50;11140047;26;20004;-76
2024/04/20 19:59:52;;;;;;;2.78;1.90;;;;;;;4.53;100.00;149807.56;11142000;26;20008;-75
2024/04/20 20:04:54;;;;;;;2.38;1.95;;;;;;;4.58;100.00;149819.13;11144337;26;20010;-74
2024/04/20 20:09:56;;;;;;;3.50;2.17;;;;;;;4.78;100.00;149870.50;11143236;26;20008;-74
2024/04/20 20:14:58;;;;;;;2.17;1.50;;;;;;;4.59;100.00;149822.97;11143065;26;20023;-75
2024/04/20 20:20:05;;;;;;;2.47;1.90;;;;;;;4.61;100.00;149826.84;11142889;26;19996;-76
2024/04/20 20:25:06;;;;;;;2.63;2.40;;;;;;;4.75;100.00;149862.84;11142147;26;20472;-75
2024/04/20 20:30:09;;;;;;;2.78;2.17;;;;;;;5.04;100.00;149936.06;11143081;26;20004;-76
2024/04/20 20:35:10;;;;;;;2.30;1.83;;;;;;;5.10;100.00;149951.53;11142968;26;20529;-74
2024/04/20 20:40:12;;;;;;;2.58;2.00;;;;;;;4.95;100.00;149914.22;11143579;26;20502;-75
2024/04/20 20:45:14;;;;;;;4.00;2.47;;;;;;;5.07;100.00;149945.09;11142814;26;19996;-75
2024/04/20 20:50:16;;;;;;;3.47;2.33;;;;;;;5.02;100.00;149932.25;11144288;26;20000;-75
2024/04/20 20:55:18;;;;;;;2.72;2.45;;;;;;;5.07;97.74;149943.81;11143153;26;20007;-75
2024/04/20 21:00:21;;;;;;;4.00;2.95;;;;;;;4.71;100.00;149853.81;11142651;26;20058;-75
2024/04/20 21:05:23;;;;;;;4.63;3.35;;;;;;;4.57;100.00;149817.84;11142247;26;20000;-75
2024/04/20 21:10:25;;;;;;;3.47;3.17;;;;;;;4.59;100.00;149822.97;11142818;26;20004;-77
2024/04/20 21:15:27;;;;;;;4.47;3.55;;;;;;;4.74;100.00;149860.28;11142530;26;20082;-76
2024/04/20 21:20:29;;;;;;;5.50;3.10;;;;;;;4.70;100.00;149850.00;11140060;26;20036;-75
2024/04/20 21:25:33;;;;;;;2.88;2.30;;;;;;;4.79;100.00;149874.41;11140994;26;20424;-76
2024/04/20 21:30:35;;;;;;;2.58;2.28;;;;;;;4.87;97.22;149893.69;11141782;26;20069;-74
2024/04/20 21:35:37;;;;;;;2.65;2.22;;;;;;;4.85;97.09;149887.25;11141940;26;20386;-76
2024/04/20 21:40:45;;;;;;;2.45;2.13;;;;;;;4.94;96.44;149910.38;11139635;26;20504;-78
2024/04/20 21:45:54;;;;;;;1.77;1.67;;;;;;;4.83;98.49;149883.41;11140140;26;20464;-76
2024/04/20 21:51:04;;;;;;;2.13;1.80;;;;;;;4.88;98.71;149896.25;11139178;26;20075;-75
2024/04/20 21:56:07;;;;;;;2.38;2.00;;;;;;;4.70;100.00;149850.00;11139119;26;20018;-75
2024/04/20 22:01:14;;;;;;;2.75;1.90;;;;;;;4.60;100.00;149824.25;11140275;26;20005;-74
2024/04/20 22:06:16;;;;;;;1.83;1.60;;;;;;;4.68;100.00;149846.09;11140665;26;20028;-75
2024/04/20 22:11:18;;;;;;;3.33;2.33;;;;;;;4.57;100.00;149816.56;11140220;26;20004;-76
2024/04/20 22:16:21;;;;;;;2.00;1.80;;;;;;;4.68;100.00;149846.09;11141367;26;20011;-75
2024/04/20 22:21:23;;;;;;;2.63;2.42;;;;;;;4.60;100.00;149824.25;11141022;26;20479;-75
2024/04/20 22:26:26;;;;;;;3.38;2.70;;;;;;;4.53;100.00;149808.84;11139795;26;20000;-75
2024/04/20 22:31:28;;;;;;;3.08;2.40;;;;;;;4.57;100.00;149817.84;11138451;26;20008;-75
2024/04/20 22:36:30;;;;;;;2.90;2.10;;;;;;;4.51;100.00;149802.41;11138831;26;20098;-75
2024/04/20 22:41:31;;;;;;;2.78;2.08;;;;;;;4.51;100.00;149803.69;11138339;26;20014;-75
2024/04/20 22:46:33;;;;;;;2.25;1.42;;;;;;;4.60;100.00;149825.53;11138047;26;20019;-75
2024/04/20 22:51:35;;;;;;;2.13;1.80;;;;;;;4.77;100.00;149869.22;11139749;26;20032;-75
2024/04/20 22:56:37;;;;;;;2.45;1.10;;;;;;;5.10;100.00;149951.53;11144548;26;20006;-75
2024/04/20 23:01:39;;;;;;;1.92;1.40;;;;;;;4.99;100.00;149923.22;11143775;26;20016;-75
2024/04/20 23:06:41;;;;;;;1.70;1.30;;;;;;;5.00;100.00;149927.13;11143398;26;20524;-76
2024/04/20 23:11:43;;;;;;;1.08;0.90;;;;;;;4.78;100.00;149871.84;11142149;26;20072;-75
2024/04/20 23:16:45;;;;;;;1.73;1.38;;;;;;;4.49;100.00;149798.56;11143377;26;20500;-76